ΜΗΧΑΝΟΡΓΑΝΩΣΗ ΔΗΜΟΚΡΙΤΟΣ - ΔΕΛΗΓΙΩΡΓΗΣ ΧΡΗΣΤΟΣ - Πωλήσεις Υπολογιστών - προγραμμάτων - ταμειακών - φωτοαντιγραφικών - περιφερειακών - αναλωσίμων - Service - υπεύθυνα απο το 1987


Ο ΚΑΙΡΟΣ ΕΙΝΑΙ ΜΙΑ ΠΡΟΣΦΟΡΑ ΤΗΣ ΜΗΧΑΝΟΡΓΑΝΩΣΗΣ ΔΗΜΟΚΡΙΤΟΣ - 25310-31959
LAST READING AT TIME: 8:10 PM DATE: 19 May 2019, time of next update: 8:20 pm
Current WeatherDry Current Temperature 22.3°C (72.1°F) (Heat Index 22.3°C ), Apparent temp 23.4°C
Maximum Temperature (since midnight)24.3°C at: 2:07 PM Minimum Temperature (since midnight)14.3°C at: 6:00 AM
Average windspeed (ten minute)0.4 kts (0.8 kmh) Wind Direction (ten minute)WSW (250°)
Windchill Temperature 22.3°C Maximum Gust (last hour)3.9 kts (7.3 kmh) at: 7:12 PM
Maximum Gust (since midnight)10.4 kts (19.2 kmh) at: 11:57 AM Maximum 1 minute average (since midnight)7.7 kts (14.3 kmh) at: 11:44 AM
Rainfall (last hour)0.0 mm Rainfall (since midnight)0.0 mm (0.00 in.)---
Rainfall This month 49.8 mm (1.96 in.) Rainfall To date this year 344.4 mm (13.56 in.)
Maximum rain per minute (last hour)0.0 mm/min Maximum rain per hour (last 6 hours)0.0 mm/hour
Yesterdays rainfall 0.0 mm DewPoint 12.5°C (Wet Bulb :16.7°C )
Humidity 54 %, Humidex 24.9°C Barometer corrected to msl1009.2 hPa
Pressure change -0.7 hPa (last hour) Trend (last hour)STEADY
Pressure change (last 12 hours)-1.0 hPa Pressure change (last 6 hours)-1.2 hPa

This page is updated from recent data collected by a WS2310 weather station Use the Reload or Refresh facility on your browser to retrieve the latest data.

Status report of weather station: Democritus Computers



Click here to listen to the current weather conditions


Weather report/Warning/Metars

Alexandroupoli Airport , Greece (LGAL) 40-51N 025-55E 3M
Jan 07, 2019 - 01:50 AM EST / 2019.01.07 0650 UTC
Wind: Variable at 3 MPH (3 KT):0
Visibility: greater than 7 mile(s):0
Sky conditions: mostly clear
Temperature: 28 F (-2 C)
Dew Point: 19 F (-7 C)
Relative Humidity: 68%
Pressure (altimeter): 30.06 in. Hg (1018 hPa)
ob: LGAL 070650Z VRB03KT 9999 FEW030 M02/M07 Q1018
cycle: 7
Chrysoupoli Airport , Greece (LGKV) 40-59N 024-36E 5M
Jan 07, 2019 - 01:50 AM EST / 2019.01.07 0650 UTC
Wind: from the NE (050 degrees) at 6 MPH (5 KT):0
Visibility: greater than 7 mile(s):0
Sky conditions: partly cloudy
Temperature: 26 F (-3 C)
Windchill: 19 F (-7 C):1
Dew Point: 23 F (-5 C)
Relative Humidity: 86%
Pressure (altimeter): 30.06 in. Hg (1018 hPa)
ob: LGKV 070650Z 05005KT 9999 FEW018 SCT080 M03/M05 Q1018
cycle: 7
Thessaloniki Airport , Greece (LGTS) 40-31N 022-58E 4M
Jan 07, 2019 - 01:50 AM EST / 2019.01.07 0650 UTC
Wind: from the NNE (020 degrees) at 9 MPH (8 KT):0
Visibility: greater than 7 mile(s):0
Sky conditions: mostly clear
Temperature: 33 F (1 C)
Windchill: 24 F (-4 C):1
Dew Point: 19 F (-7 C)
Relative Humidity: 55%
Pressure (altimeter): 30.09 in. Hg (1019 hPa)
ob: LGTS 070650Z 02008KT 9999 FEW018 01/M07 Q1019 NOSIG
cycle: 7


The data is logged at two minute intervals, but there is data recorded every minute. On the graph, the Blue line represents the average windspeed, the Red line is the maximum gust for that interval, and the Green line is what the wind has dropped off to in the same interval. Fuschia is the Barometer, and the dew point and Blue is humidity.

Use the RELOAD facility on your browser to retrieve the latest data.




Click here for a daily update of the averages/extremes to date for the month





Ο ΚΑΙΡΟΣ ΕΙΝΑΙ ΜΙΑ ΠΡΟΣΦΟΡΑ ΤΗΣ ΜΗΧΑΝΟΡΓΑΝΩΣΗΣ ΔΗΜΟΚΡΙΤΟΣ


ΕΠΙΣΚΕΦΘΕΙΤΕ ΤΗ ΣΕΛΙΔΑ ΤΗΣ ΑΕΡΟΛΕΣΧΗΣ ΚΟΜΟΤΗΝΗΣ


Για παρατηρήσεις : del@delkom.gr



ΦΩΤΟΓΡΑΦΙΑ ΤΗΣ ΕΓΚΑΤΑΣΤΑΣΗΣ




Weather Underground PWS IKOMOTIN2
Click για πρόγνωση του καιρού

Created by "Weather Display" software version 10.37R Build 81 at this start time/date 2:21 pm 16/05/19